Time;durP1;ratioP1;P1;durP2;ratioP2;P2;SDS_P1;SDS_P2;PMS_P1;PMS_P2;Temp;Humidity;BMP_temperature;BMP_pressure;BME280_temperature;BME280_humidity;BME280_pressure;Samples;Min_cycle;Max_cycle;Signal;HPM_P1;HPM_P2
2021/05/16 00:00:44;;;;;;;1.30;0.10;;;20.80;47.70;;;;;;4996403;28;20046;-79
2021/05/16 00:03:11;;;;;;;0.20;0.10;;;21.20;47.10;;;;;;4997900;28;20481;-79
2021/05/16 00:05:39;;;;;;;1.33;0.32;;;21.40;46.50;;;;;;4995260;28;20088;-77
2021/05/16 00:08:06;;;;;;;0.38;0.10;;;21.70;46.10;;;;;;4995688;28;20101;-79
2021/05/16 00:10:34;;;;;;;1.40;0.55;;;22.00;40.90;;;;;;4998282;28;20497;-79
2021/05/16 00:13:01;;;;;;;0.52;0.10;;;21.60;44.70;;;;;;4998507;28;20042;-78
2021/05/16 00:15:30;;;;;;;1.88;0.20;;;21.60;41.90;;;;;;4994738;28;20224;-77
2021/05/16 00:17:58;;;;;;;0.88;0.03;;;21.40;44.30;;;;;;4997632;28;20022;-78
2021/05/16 00:20:29;;;;;;;1.08;0.10;;;22.10;44.10;;;;;;4994657;28;20102;-77
2021/05/16 00:22:57;;;;;;;0.98;0.25;;;22.80;42.30;;;;;;5001809;28;20037;-78
2021/05/16 00:25:25;;;;;;;0.80;0.55;;;22.90;42.90;;;;;;4988367;28;20037;-78
2021/05/16 00:27:53;;;;;;;0.35;0.10;;;23.10;40.30;;;;;;5002565;28;20026;-78
2021/05/16 00:30:22;;;;;;;0.73;0.25;;;23.10;39.40;;;;;;4993026;28;21253;-79
2021/05/16 00:32:50;;;;;;;1.00;0.10;;;23.30;38.30;;;;;;4998007;28;20389;-78
2021/05/16 00:35:19;;;;;;;1.02;0.10;;;22.90;39.20;;;;;;5001805;28;20068;-78
2021/05/16 00:37:47;;;;;;;0.63;0.10;;;22.90;39.10;;;;;;4997721;28;20014;-78
2021/05/16 00:40:15;;;;;;;0.30;0.10;;;23.00;40.70;;;;;;4994851;28;20033;-78
2021/05/16 00:42:44;;;;;;;1.45;0.20;;;22.90;38.80;;;;;;4992301;28;20426;-79
2021/05/16 00:45:17;;;;;;;2.22;1.38;;;23.10;37.00;;;;;;4992615;28;20033;-78
2021/05/16 00:47:53;;;;;;;0.17;0.15;;;23.10;38.30;;;;;;4997130;28;20843;-79
2021/05/16 00:50:24;;;;;;;1.85;0.10;;;23.40;41.10;;;;;;4992247;28;20064;-73
2021/05/16 00:52:52;;;;;;;0.85;0.28;;;24.10;37.70;;;;;;4994125;28;20034;-72
2021/05/16 00:55:21;;;;;;;1.00;0.17;;;24.20;36.70;;;;;;4990933;28;20034;-73
2021/05/16 00:57:49;;;;;;;0.25;0.25;;;24.40;36.10;;;;;;4996659;28;20038;-74
2021/05/16 01:00:19;;;;;;;1.00;0.10;;;24.20;33.70;;;;;;4987918;28;20034;-73
2021/05/16 01:02:47;;;;;;;1.85;0.73;;;23.70;34.90;;;;;;4994711;28;20036;-73
2021/05/16 01:05:16;;;;;;;0.60;0.13;;;24.00;35.30;;;;;;4989560;28;20050;-73
2021/05/16 01:07:44;;;;;;;0.95;0.13;;;24.30;35.00;;;;;;4990507;28;20073;-75
2021/05/16 01:10:12;;;;;;;0.93;0.10;;;24.50;34.70;;;;;;4992060;28;20038;-73
2021/05/16 01:12:48;;;;;;;1.25;0.35;;;24.50;36.10;;;;;;4992424;28;20104;-73
2021/05/16 01:15:19;;;;;;;1.55;0.30;;;24.70;37.00;;;;;;4989209;28;20022;-73
2021/05/16 01:17:47;;;;;;;0.55;0.43;;;24.80;35.20;;;;;;4987778;28;20093;-73
2021/05/16 01:20:26;;;;;;;2.25;0.30;;;25.10;37.00;;;;;;4996060;28;20042;-72
2021/05/16 01:22:59;;;;;;;0.30;0.10;;;25.30;34.80;;;;;;4994535;28;20038;-73
2021/05/16 01:25:28;;;;;;;0.68;0.10;;;25.50;34.60;;;;;;4993833;28;20385;-73
2021/05/16 01:27:56;;;;;;;0.98;0.32;;;25.80;33.10;;;;;;4992079;28;20034;-74
2021/05/16 01:30:24;;;;;;;0.30;0.10;;;25.80;32.10;;;;;;4994743;28;20547;-73
2021/05/16 01:32:53;;;;;;;1.00;0.20;;;25.60;30.80;;;;;;4995251;28;20034;-72
2021/05/16 01:35:22;;;;;;;0.80;0.20;;;25.00;35.40;;;;;;4991136;28;20053;-71
2021/05/16 01:37:49;;;;;;;0.77;0.10;;;24.70;32.30;;;;;;4999635;28;20169;-70
2021/05/16 01:40:19;;;;;;;0.68;0.10;;;24.80;33.30;;;;;;4991708;28;20152;-72
2021/05/16 01:42:52;;;;;;;1.05;0.20;;;24.80;34.00;;;;;;4995016;28;20022;-73
2021/05/16 01:45:25;;;;;;;0.93;0.60;;;24.90;32.00;;;;;;4988373;28;20100;-72
2021/05/16 01:47:57;;;;;;;0.63;0.50;;;24.10;31.10;;;;;;4991158;28;20469;-72
2021/05/16 01:50:31;;;;;;;0.28;0.10;;;24.50;33.40;;;;;;4982828;28;20125;-72
2021/05/16 01:53:00;;;;;;;1.05;0.10;;;25.20;34.40;;;;;;4989833;28;20109;-72
2021/05/16 01:55:28;;;;;;;0.40;0.28;;;25.70;34.40;;;;;;4992733;28;20432;-72
2021/05/16 01:57:55;;;;;;;0.13;0.10;;;25.90;33.80;;;;;;4992631;28;20482;-73
2021/05/16 02:00:26;;;;;;;0.82;0.20;;;26.20;37.80;;;;;;4990123;28;20079;-74
2021/05/16 02:02:54;;;;;;;0.63;0.40;;;26.50;34.40;;;;;;4991648;28;20026;-74
2021/05/16 02:05:22;;;;;;;1.08;0.20;;;26.20;30.40;;;;;;4994098;28;20046;-75
2021/05/16 02:07:50;;;;;;;0.15;0.15;;;26.40;31.00;;;;;;4990902;28;20030;-74
2021/05/16 02:10:19;;;;;;;0.38;0.10;;;26.70;31.10;;;;;;4996300;28;20025;-74
2021/05/16 02:12:46;;;;;;;0.50;0.25;;;26.70;28.90;;;;;;4997863;28;20084;-74
2021/05/16 02:15:14;;;;;;;0.10;0.10;;;26.30;28.60;;;;;;4997688;28;20030;-80
2021/05/16 02:17:43;;;;;;;0.03;0.03;;;25.80;27.00;;;;;;4998498;28;20025;-78
2021/05/16 02:20:13;;;;;;;0.75;0.10;;;24.40;28.50;;;;;;4995618;28;20025;-73
2021/05/16 02:22:41;;;;;;;0.22;0.10;;;24.50;29.70;;;;;;4994237;28;20038;-74
2021/05/16 02:25:10;;;;;;;3.33;0.20;;;23.90;28.00;;;;;;4992946;28;20057;-73
2021/05/16 02:27:37;;;;;;;0.68;0.20;;;23.70;33.10;;;;;;4992997;28;20026;-74
2021/05/16 02:30:07;;;;;;;0.10;0.10;;;24.20;30.00;;;;;;4988912;28;20025;-74
2021/05/16 02:32:36;;;;;;;0.55;0.15;;;23.60;29.10;;;;;;4992022;28;20374;-74
2021/05/16 02:35:06;;;;;;;0.10;0.08;;;23.90;29.20;;;;;;4994569;28;20129;-74
2021/05/16 02:37:33;;;;;;;0.10;0.10;;;23.90;29.00;;;;;;4991322;28;20054;-73
2021/05/16 02:40:01;;;;;;;0.70;0.10;;;23.80;29.30;;;;;;4993535;28;20033;-73
2021/05/16 02:42:28;;;;;;;0.32;0.08;;;23.90;29.20;;;;;;4991811;28;20085;-73
2021/05/16 02:44:55;;;;;;;0.10;0.10;;;24.10;30.80;;;;;;4994365;28;20030;-74
2021/05/16 02:47:23;;;;;;;0.88;0.10;;;24.00;28.40;;;;;;4992205;28;20554;-73
2021/05/16 02:49:50;;;;;;;0.55;0.10;;;23.50;33.00;;;;;;4994170;28;20525;-72
2021/05/16 02:52:18;;;;;;;1.30;0.15;;;23.80;30.00;;;;;;4992921;28;20029;-73
2021/05/16 02:54:47;;;;;;;0.30;0.10;;;23.10;28.90;;;;;;4994613;28;20061;-73
2021/05/16 02:57:15;;;;;;;0.45;0.20;;;22.50;29.30;;;;;;4993581;28;20022;-72
2021/05/16 02:59:42;;;;;;;0.77;0.20;;;22.70;31.70;;;;;;4992287;28;20026;-72
2021/05/16 03:02:11;;;;;;;0.10;0.10;;;23.00;29.10;;;;;;4998560;28;20388;-73
2021/05/16 03:04:38;;;;;;;0.70;0.13;;;22.60;28.80;;;;;;5002026;28;20077;-72
2021/05/16 03:07:06;;;;;;;0.68;0.68;;;22.80;31.30;;;;;;4997036;28;20030;-72
2021/05/16 03:09:35;;;;;;;0.20;0.10;;;23.70;34.50;;;;;;5002320;28;20023;-73
2021/05/16 03:12:09;;;;;;;0.08;0.00;;;23.60;29.90;;;;;;5002483;28;20503;-73
2021/05/16 03:14:36;;;;;;;0.10;0.00;;;23.90;33.10;;;;;;4998547;28;20036;-72
2021/05/16 03:17:04;;;;;;;1.10;0.20;;;24.30;32.30;;;;;;5000101;28;20026;-72
2021/05/16 03:19:32;;;;;;;2.72;0.10;;;23.80;27.70;;;;;;4997440;28;20552;-74
2021/05/16 03:22:01;;;;;;;0.75;0.15;;;23.50;29.70;;;;;;5000635;28;20088;-72
2021/05/16 03:24:29;;;;;;;0.47;0.00;;;23.10;28.70;;;;;;5001832;28;20030;-72
2021/05/16 03:26:56;;;;;;;0.75;0.20;;;22.90;30.00;;;;;;4999164;28;20366;-72
2021/05/16 03:29:24;;;;;;;1.55;0.10;;;22.90;29.70;;;;;;4997893;28;20026;-72
2021/05/16 03:31:51;;;;;;;0.17;0.08;;;22.80;32.00;;;;;;5000010;28;20030;-74
2021/05/16 03:34:18;;;;;;;0.20;0.03;;;22.60;31.80;;;;;;4992643;28;20480;-73
2021/05/16 03:36:46;;;;;;;0.00;0.00;;;22.40;32.90;;;;;;5001747;28;20414;-73
2021/05/16 03:39:13;;;;;;;1.17;0.10;;;22.30;33.70;;;;;;4997772;28;20110;-73
2021/05/16 03:41:41;;;;;;;1.92;0.10;;;21.80;33.50;;;;;;5000709;28;20512;-73
2021/05/16 03:44:08;;;;;;;0.68;0.10;;;21.40;32.20;;;;;;4991324;28;20552;-72
2021/05/16 03:46:36;;;;;;;0.20;0.08;;;21.00;32.50;;;;;;4996589;28;20500;-74
2021/05/16 03:49:03;;;;;;;0.47;0.10;;;20.70;32.00;;;;;;4994943;28;20034;-73
2021/05/16 03:51:31;;;;;;;0.68;0.25;;;20.50;34.10;;;;;;4996613;28;20034;-72
2021/05/16 03:53:58;;;;;;;1.25;0.10;;;20.00;33.70;;;;;;4996260;28;20381;-72
2021/05/16 03:56:25;;;;;;;0.70;0.10;;;19.40;34.50;;;;;;5002399;28;20149;-73
2021/05/16 03:58:53;;;;;;;0.85;0.10;;;19.40;35.70;;;;;;4997879;28;20493;-73
2021/05/16 04:01:20;;;;;;;0.28;0.10;;;19.50;37.40;;;;;;4999983;28;20037;-74
2021/05/16 04:03:48;;;;;;;0.28;0.10;;;19.40;36.10;;;;;;4998284;28;20037;-73
2021/05/16 04:06:15;;;;;;;0.32;0.03;;;19.10;34.10;;;;;;4999146;28;20069;-75
2021/05/16 04:08:42;;;;;;;1.48;0.10;;;18.90;35.00;;;;;;4999568;28;20105;-73
2021/05/16 04:11:10;;;;;;;0.40;0.10;;;18.80;37.10;;;;;;5004580;28;20030;-73
2021/05/16 04:13:37;;;;;;;0.15;0.10;;;18.80;35.90;;;;;;4989197;28;20721;-73
2021/05/16 04:16:05;;;;;;;0.20;0.10;;;18.60;37.10;;;;;;4994454;28;20026;-73
2021/05/16 04:18:32;;;;;;;0.60;0.10;;;18.70;37.10;;;;;;5002387;28;20031;-73
2021/05/16 04:21:01;;;;;;;0.63;0.10;;;18.60;35.30;;;;;;4998701;28;20104;-73
2021/05/16 04:23:29;;;;;;;3.72;0.30;;;18.50;34.60;;;;;;4998855;28;20421;-73
2021/05/16 04:25:56;;;;;;;1.55;0.20;;;18.50;36.00;;;;;;4996660;28;20042;-73
2021/05/16 04:28:24;;;;;;;0.52;0.17;;;18.70;35.80;;;;;;4996405;28;20416;-72
2021/05/16 04:30:51;;;;;;;0.45;0.20;;;18.70;35.40;;;;;;5000650;28;20033;-74
2021/05/16 04:33:19;;;;;;;1.25;0.25;;;18.70;35.40;;;;;;4996258;28;20081;-74
2021/05/16 04:35:46;;;;;;;0.73;0.10;;;18.60;35.80;;;;;;5004512;28;20120;-72
2021/05/16 04:38:13;;;;;;;1.17;0.20;;;18.50;35.80;;;;;;4999790;28;20481;-73
2021/05/16 04:40:41;;;;;;;0.00;0.00;;;18.40;35.20;;;;;;4993675;28;20366;-73
2021/05/16 04:43:08;;;;;;;0.43;0.10;;;18.30;35.10;;;;;;4998768;28;20040;-73
2021/05/16 04:45:36;;;;;;;0.30;0.17;;;18.10;37.40;;;;;;4990836;28;20069;-74
2021/05/16 04:48:04;;;;;;;0.20;0.10;;;17.90;37.00;;;;;;5005349;28;20057;-73
2021/05/16 04:50:31;;;;;;;0.40;0.10;;;17.90;39.20;;;;;;5001582;28;20045;-73
2021/05/16 04:52:59;;;;;;;1.00;0.10;;;18.10;42.40;;;;;;5000634;28;20030;-75
2021/05/16 04:55:26;;;;;;;0.50;0.10;;;18.20;43.30;;;;;;4997705;28;20110;-74
2021/05/16 04:57:54;;;;;;;1.35;0.35;;;18.10;37.90;;;;;;4997238;28;20044;-76
2021/05/16 05:00:22;;;;;;;0.50;0.10;;;18.10;38.00;;;;;;4994954;28;20500;-72
2021/05/16 05:02:50;;;;;;;0.57;0.28;;;18.00;39.30;;;;;;4999666;28;20022;-72
2021/05/16 05:05:18;;;;;;;0.25;0.10;;;18.10;37.40;;;;;;4998551;28;20042;-73
2021/05/16 05:07:46;;;;;;;0.47;0.20;;;18.10;39.00;;;;;;5002464;28;20109;-72
2021/05/16 05:10:13;;;;;;;0.13;0.10;;;18.20;39.40;;;;;;4998265;28;20525;-72
2021/05/16 05:12:41;;;;;;;0.63;0.30;;;18.30;39.80;;;;;;5001964;28;20076;-72
2021/05/16 05:15:08;;;;;;;3.72;1.42;;;18.30;39.40;;;;;;4992079;28;20097;-73
2021/05/16 05:17:40;;;;;;;2.63;0.52;;;18.30;39.70;;;;;;5000000;28;20038;-73
2021/05/16 05:20:09;;;;;;;1.85;0.20;;;18.30;41.10;;;;;;4994400;28;20126;-73
2021/05/16 05:22:37;;;;;;;0.80;0.40;;;18.40;39.40;;;;;;4995834;28;20492;-74
2021/05/16 05:25:06;;;;;;;1.05;0.40;;;18.30;40.10;;;;;;4991092;28;20144;-73
2021/05/16 05:27:33;;;;;;;1.10;0.25;;;18.20;38.50;;;;;;4996800;28;20022;-73
2021/05/16 05:30:01;;;;;;;0.30;0.10;;;18.20;39.20;;;;;;4997021;28;20033;-73
2021/05/16 05:32:28;;;;;;;1.77;0.30;;;18.10;40.80;;;;;;5000656;28;20038;-73
2021/05/16 05:34:55;;;;;;;0.15;0.10;;;18.30;40.30;;;;;;5000516;28;20040;-72
2021/05/16 05:37:25;;;;;;;0.82;0.10;;;18.40;38.50;;;;;;5000982;28;20080;-72
2021/05/16 05:39:53;;;;;;;0.30;0.20;;;18.40;38.70;;;;;;4992191;28;20049;-72
2021/05/16 05:42:23;;;;;;;0.65;0.25;;;18.60;39.10;;;;;;5002767;28;20033;-73
2021/05/16 05:44:50;;;;;;;0.35;0.20;;;18.60;40.20;;;;;;4996393;28;20041;-73
2021/05/16 05:47:18;;;;;;;0.43;0.15;;;18.40;39.50;;;;;;5001876;28;20419;-73
2021/05/16 05:49:45;;;;;;;0.35;0.20;;;18.50;40.60;;;;;;4996016;28;20042;-74
2021/05/16 05:52:13;;;;;;;0.40;0.10;;;18.60;40.80;;;;;;4999494;28;20026;-74
2021/05/16 05:54:40;;;;;;;0.50;0.20;;;18.60;39.10;;;;;;4997587;28;20034;-72
2021/05/16 05:57:08;;;;;;;1.02;0.25;;;18.60;39.60;;;;;;4994921;28;20101;-73
2021/05/16 05:59:35;;;;;;;0.68;0.22;;;18.40;38.30;;;;;;4993023;28;20053;-73
2021/05/16 06:02:03;;;;;;;0.65;0.10;;;18.40;38.10;;;;;;5000682;28;20424;-73
2021/05/16 06:04:31;;;;;;;0.20;0.10;;;18.60;37.90;;;;;;4987005;28;20100;-73
2021/05/16 06:06:58;;;;;;;0.20;0.17;;;18.70;40.70;;;;;;4989593;28;20382;-73
2021/05/16 06:09:26;;;;;;;1.45;0.60;;;18.80;40.50;;;;;;4996758;28;20113;-72
2021/05/16 06:11:54;;;;;;;1.65;0.20;;;18.80;39.80;;;;;;4997460;28;20026;-72
2021/05/16 06:14:21;;;;;;;0.90;0.30;;;18.90;41.80;;;;;;4996715;28;20113;-73
2021/05/16 06:16:48;;;;;;;0.40;0.17;;;19.00;39.30;;;;;;5001389;28;20022;-72
2021/05/16 06:19:16;;;;;;;0.60;0.17;;;19.00;39.50;;;;;;4992265;28;20037;-73
2021/05/16 06:21:43;;;;;;;0.98;0.35;;;19.00;40.10;;;;;;4993738;28;20084;-74
2021/05/16 06:24:12;;;;;;;1.25;0.43;;;18.90;40.00;;;;;;4994237;28;20344;-74
2021/05/16 06:26:42;;;;;;;0.55;0.32;;;18.80;39.60;;;;;;4998062;28;20034;-74
2021/05/16 06:29:11;;;;;;;1.67;0.20;;;18.60;40.30;;;;;;4994367;28;20026;-73
2021/05/16 06:31:40;;;;;;;0.82;0.38;;;18.40;40.70;;;;;;4994313;28;20133;-73
2021/05/16 06:34:07;;;;;;;1.00;0.88;;;18.30;41.40;;;;;;4994338;28;20130;-73
2021/05/16 06:36:35;;;;;;;0.80;0.30;;;18.10;41.50;;;;;;4998200;28;20034;-74
2021/05/16 06:39:05;;;;;;;1.33;0.75;;;18.00;42.40;;;;;;4987439;28;20046;-73
2021/05/16 06:41:33;;;;;;;1.30;0.30;;;17.80;43.20;;;;;;4989184;28;20046;-73
2021/05/16 06:44:00;;;;;;;1.27;0.55;;;17.70;43.80;;;;;;4992342;28;20042;-72
2021/05/16 06:46:28;;;;;;;2.13;0.95;;;17.60;43.10;;;;;;4992140;28;20053;-73
2021/05/16 06:48:58;;;;;;;1.70;0.77;;;17.50;44.20;;;;;;4985871;28;20038;-73
2021/05/16 06:51:25;;;;;;;1.50;0.77;;;17.40;44.90;;;;;;4986776;28;20026;-74
2021/05/16 06:53:53;;;;;;;2.72;1.08;;;17.30;44.60;;;;;;4990927;28;20029;-73
2021/05/16 06:56:20;;;;;;;2.13;0.93;;;17.10;44.60;;;;;;4993259;28;20049;-74
2021/05/16 06:58:48;;;;;;;1.23;0.40;;;16.90;46.20;;;;;;4994997;28;20030;-73
2021/05/16 07:01:15;;;;;;;4.88;2.53;;;16.80;45.80;;;;;;4990437;28;20050;-72
2021/05/16 07:03:44;;;;;;;5.35;2.75;;;16.70;45.80;;;;;;4995583;28;20027;-73
2021/05/16 07:06:11;;;;;;;3.80;1.85;;;16.60;46.30;;;;;;4990020;28;20056;-73
2021/05/16 07:08:39;;;;;;;3.30;1.50;;;16.50;46.70;;;;;;4991886;28;20023;-72
2021/05/16 07:11:07;;;;;;;5.30;2.35;;;16.40;46.00;;;;;;4991907;28;20029;-72
2021/05/16 07:13:34;;;;;;;3.55;1.48;;;16.30;46.10;;;;;;4995595;28;20034;-73
2021/05/16 07:16:01;;;;;;;2.35;0.80;;;16.20;45.10;;;;;;4991135;28;20501;-75
2021/05/16 07:18:29;;;;;;;2.33;0.65;;;16.00;43.90;;;;;;4995456;28;20041;-79
2021/05/16 07:20:56;;;;;;;0.95;0.75;;;16.00;43.50;;;;;;4994759;28;20022;-78
2021/05/16 07:23:24;;;;;;;1.63;0.88;;;16.00;42.50;;;;;;4997863;28;20053;-76
2021/05/16 07:25:51;;;;;;;0.93;0.50;;;15.90;41.70;;;;;;4992505;28;20708;-79
2021/05/16 07:28:18;;;;;;;1.70;0.57;;;15.80;41.70;;;;;;4998172;28;20076;-79
2021/05/16 07:30:46;;;;;;;1.00;0.40;;;15.80;41.70;;;;;;4996571;28;20037;-80
2021/05/16 07:33:13;;;;;;;1.63;0.70;;;15.70;42.30;;;;;;4995375;28;20025;-80
2021/05/16 07:35:42;;;;;;;1.50;0.88;;;15.60;42.10;;;;;;4988060;28;20026;-81
2021/05/16 07:38:11;;;;;;;7.03;2.60;;;15.50;43.30;;;;;;4995654;28;20031;-81
2021/05/16 07:40:39;;;;;;;3.10;2.15;;;15.30;44.50;;;;;;4992701;28;20030;-80
2021/05/16 07:43:07;;;;;;;1.75;1.05;;;15.20;46.10;;;;;;4997925;28;20037;-79
2021/05/16 07:45:36;;;;;;;1.23;0.50;;;15.10;47.60;;;;;;4997038;28;20054;-81
2021/05/16 07:48:04;;;;;;;0.95;0.45;;;15.10;49.00;;;;;;4998959;28;20030;-80
2021/05/16 07:50:32;;;;;;;0.80;0.40;;;14.90;49.90;;;;;;4998357;28;20125;-80
2021/05/16 07:52:59;;;;;;;1.40;0.50;;;14.80;50.70;;;;;;5001243;28;20030;-80
2021/05/16 07:55:28;;;;;;;0.30;0.20;;;14.80;51.50;;;;;;4997089;28;20390;-80
2021/05/16 07:57:55;;;;;;;1.33;1.23;;;14.70;51.90;;;;;;4996606;28;20030;-78
2021/05/16 08:00:23;;;;;;;1.75;0.30;;;14.60;51.20;;;;;;5000165;28;20030;-79
2021/05/16 08:02:50;;;;;;;0.57;0.43;;;14.50;49.90;;;;;;5002145;28;20022;-78
2021/05/16 08:05:18;;;;;;;0.68;0.40;;;14.50;48.80;;;;;;5000541;28;20057;-81
2021/05/16 08:07:45;;;;;;;1.70;1.00;;;14.40;48.30;;;;;;4996587;28;20110;-82
2021/05/16 08:10:19;;;;;;;1.05;0.70;;;14.40;47.80;;;;;;4991199;28;20046;-80
2021/05/16 08:12:47;;;;;;;1.40;0.80;;;14.40;49.00;;;;;;5002192;28;20030;-81
2021/05/16 08:15:14;;;;;;;1.90;1.00;;;14.40;49.70;;;;;;5001556;28;20019;-82
2021/05/16 08:17:42;;;;;;;2.20;1.10;;;14.30;50.80;;;;;;4998041;28;20041;-80
2021/05/16 08:20:10;;;;;;;1.92;1.52;;;14.10;51.50;;;;;;4997437;28;20033;-81
2021/05/16 08:22:38;;;;;;;1.63;1.15;;;14.10;52.00;;;;;;4996598;28;20122;-80
2021/05/16 08:25:09;;;;;;;3.33;1.33;;;13.90;52.20;;;;;;4999166;28;20030;-78
2021/05/16 08:27:37;;;;;;;2.42;0.90;;;13.80;53.70;;;;;;4999421;28;20027;-81
2021/05/16 08:30:05;;;;;;;1.48;0.60;;;13.70;52.20;;;;;;4995962;28;20034;-80
2021/05/16 08:32:33;;;;;;;0.85;0.47;;;13.60;52.80;;;;;;4992329;28;20030;-78
2021/05/16 08:35:01;;;;;;;0.95;0.50;;;13.50;52.80;;;;;;4999656;28;20136;-79
2021/05/16 08:37:28;;;;;;;2.53;1.15;;;13.40;54.20;;;;;;4996482;28;20050;-80
2021/05/16 08:39:56;;;;;;;6.60;3.50;;;13.30;54.70;;;;;;4999515;28;20121;-78
2021/05/16 08:42:23;;;;;;;9.57;4.22;;;13.00;54.50;;;;;;5003302;28;20072;-79
2021/05/16 08:44:51;;;;;;;9.45;4.57;;;12.90;55.40;;;;;;5001398;28;20046;-78
2021/05/16 08:47:19;;;;;;;13.93;5.45;;;12.80;57.40;;;;;;4992162;28;20646;-79
2021/05/16 08:49:46;;;;;;;9.23;3.13;;;12.80;58.30;;;;;;4995138;28;20153;-79
2021/05/16 08:52:14;;;;;;;4.80;2.08;;;12.80;58.90;;;;;;4995881;28;20030;-82
2021/05/16 08:54:45;;;;;;;3.72;0.70;;;12.70;58.30;;;;;;4993529;28;20022;-80
2021/05/16 08:57:12;;;;;;;2.50;1.17;;;12.70;56.70;;;;;;4994356;28;20476;-78
2021/05/16 09:00:11;;;;;;;5.30;1.20;;;12.60;58.80;;;;;;4994531;28;20057;-77
2021/05/16 09:03:08;;;;;;;2.70;1.25;;;12.50;60.70;;;;;;4989845;28;20157;-81
2021/05/16 09:05:38;;;;;;;0.80;0.52;;;12.50;59.30;;;;;;4985313;28;20057;-80
2021/05/16 09:08:10;;;;;;;0.85;0.50;;;12.40;56.60;;;;;;4997750;28;20034;-80
2021/05/16 09:10:38;;;;;;;0.98;0.68;;;12.40;56.00;;;;;;4994595;28;20117;-77
2021/05/16 09:13:17;;;;;;;0.95;0.30;;;12.50;54.80;;;;;;4994543;28;20033;-78
2021/05/16 09:16:10;;;;;;;1.40;0.40;;;12.60;54.40;;;;;;4996861;28;20033;-79
2021/05/16 09:18:44;;;;;;;0.90;0.40;;;12.60;54.30;;;;;;5004904;28;20034;-78
2021/05/16 09:21:32;;;;;;;2.22;0.50;;;12.60;54.00;;;;;;4997161;28;20030;-81
2021/05/16 09:24:07;;;;;;;3.10;1.35;;;12.60;54.00;;;;;;4999996;28;20122;-80
2021/05/16 09:26:38;;;;;;;2.13;1.05;;;12.60;54.30;;;;;;5001400;28;20038;-81
2021/05/16 09:29:33;;;;;;;3.22;1.05;;;12.60;55.20;;;;;;4999432;28;20037;-79
2021/05/16 09:32:02;;;;;;;3.03;1.08;;;12.60;54.80;;;;;;4998786;28;20029;-83
2021/05/16 09:34:30;;;;;;;1.17;0.80;;;12.50;55.50;;;;;;5000251;28;20025;-78
2021/05/16 09:36:57;;;;;;;1.10;0.60;;;12.50;54.70;;;;;;4997854;28;20038;-79
2021/05/16 09:39:29;;;;;;;1.35;0.43;;;12.50;55.00;;;;;;4994266;28;20018;-79
2021/05/16 09:42:04;;;;;;;1.05;0.68;;;12.40;55.40;;;;;;4996698;28;20124;-77
2021/05/16 09:44:40;;;;;;;2.33;0.80;;;12.40;56.20;;;;;;4996347;28;20041;-81
2021/05/16 09:47:14;;;;;;;;;;;12.40;56.40;;;;;;4996626;28;20461;-79
2021/05/16 09:49:50;;;;;;;4.93;1.13;;;12.30;55.30;;;;;;4992723;28;19921;-80
2021/05/16 09:52:26;;;;;;;1.58;0.77;;;12.30;55.60;;;;;;5000107;28;20026;-81
2021/05/16 09:54:59;;;;;;;2.75;1.08;;;12.30;55.40;;;;;;4996592;28;20022;-80
2021/05/16 09:57:30;;;;;;;2.58;0.75;;;12.30;55.90;;;;;;4998025;28;20026;-78
2021/05/16 09:59:57;;;;;;;3.92;1.30;;;12.30;55.60;;;;;;4990058;28;20029;-78
2021/05/16 10:02:27;;;;;;;2.35;0.90;;;12.20;56.40;;;;;;4993587;28;20483;-78
2021/05/16 10:04:57;;;;;;;2.97;1.33;;;12.20;57.20;;;;;;4995121;28;20038;-83
2021/05/16 10:07:26;;;;;;;4.22;1.35;;;12.20;57.20;;;;;;4997931;28;20168;-79
2021/05/16 10:09:54;;;;;;;9.68;2.92;;;12.10;57.50;;;;;;5000269;28;20029;-79
2021/05/16 10:12:23;;;;;;;5.63;2.72;;;12.10;57.70;;;;;;4984898;28;20466;-79
2021/05/16 10:15:06;;;;;;;3.35;1.27;;;12.10;57.90;;;;;;4991469;28;20138;-80
2021/05/16 10:17:37;;;;;;;3.28;1.02;;;12.10;57.90;;;;;;4996117;28;20075;-82
2021/05/16 10:20:16;;;;;;;4.25;0.63;;;12.00;57.80;;;;;;4992640;28;20019;-79
2021/05/16 10:22:57;;;;;;;2.03;0.73;;;12.00;58.00;;;;;;4994413;28;20030;-78
2021/05/16 10:25:43;;;;;;;1.45;0.57;;;12.00;58.40;;;;;;4990799;28;20039;-79
2021/05/16 10:28:14;;;;;;;2.30;0.88;;;12.00;58.80;;;;;;4991392;28;20051;-78
2021/05/16 10:31:03;;;;;;;0.73;0.40;;;11.90;59.00;;;;;;4991948;28;20440;-82
2021/05/16 10:33:36;;;;;;;1.63;0.57;;;11.90;59.20;;;;;;4994531;28;20085;-79
2021/05/16 10:36:06;;;;;;;4.70;0.95;;;11.90;59.40;;;;;;4992205;28;20034;-81
2021/05/16 10:38:45;;;;;;;1.92;0.70;;;11.80;59.60;;;;;;5002920;28;20034;-79
2021/05/16 10:41:24;;;;;;;2.58;0.50;;;11.80;59.80;;;;;;4989726;28;20046;-80
2021/05/16 10:44:12;;;;;;;2.38;0.90;;;11.80;60.10;;;;;;4993293;28;20029;-81
2021/05/16 10:46:42;;;;;;;2.42;0.63;;;11.80;60.40;;;;;;4995816;28;20406;-80
2021/05/16 10:49:52;;;;;;;2.58;0.57;;;11.80;60.90;;;;;;4991146;28;20088;-82
2021/05/16 10:52:30;;;;;;;1.10;0.57;;;11.70;61.00;;;;;;4987912;28;20043;-78
2021/05/16 10:54:57;;;;;;;2.78;0.57;;;11.70;61.10;;;;;;4988210;28;20125;-80
2021/05/16 10:57:39;;;;;;;1.13;0.63;;;11.70;61.30;;;;;;4989110;28;20516;-76
2021/05/16 11:00:22;;;;;;;2.75;1.27;;;11.60;61.60;;;;;;4987624;28;20022;-76
2021/05/16 11:03:11;;;;;;;0.93;0.50;;;11.60;61.60;;;;;;4992825;28;20037;-78
2021/05/16 11:05:51;;;;;;;1.40;0.40;;;11.60;61.70;;;;;;4995079;28;20042;-77
2021/05/16 11:08:19;;;;;;;2.30;0.77;;;11.50;62.20;;;;;;5009658;28;20077;-77
2021/05/16 11:10:47;;;;;;;2.67;0.75;;;11.40;62.50;;;;;;4992773;28;20092;-77
2021/05/16 11:13:20;;;;;;;1.40;0.65;;;11.30;62.50;;;;;;4991614;28;20041;-78
2021/05/16 11:15:52;;;;;;;3.17;0.93;;;11.40;62.90;;;;;;4994273;28;20152;-77
2021/05/16 11:18:24;;;;;;;3.42;1.00;;;11.30;63.10;;;;;;4993581;28;20037;-76
2021/05/16 11:20:53;;;;;;;2.70;0.88;;;11.30;63.60;;;;;;4993479;28;20057;-78
2021/05/16 11:23:28;;;;;;;1.17;0.65;;;11.20;64.30;;;;;;4998189;28;20087;-77
2021/05/16 11:25:59;;;;;;;3.08;1.40;;;11.20;65.10;;;;;;4994738;28;20038;-78
2021/05/16 11:28:29;;;;;;;1.75;0.85;;;11.10;64.80;;;;;;5003036;28;20088;-79
2021/05/16 11:30:57;;;;;;;3.47;0.88;;;11.00;65.70;;;;;;4997323;28;20118;-78
2021/05/16 11:33:39;;;;;;;3.45;0.80;;;11.00;66.40;;;;;;4998667;28;20030;-78
2021/05/16 11:36:08;;;;;;;8.38;0.90;;;10.90;67.20;;;;;;4999491;28;20045;-77
2021/05/16 11:38:38;;;;;;;1.70;0.80;;;10.90;66.40;;;;;;4998833;28;20101;-77
2021/05/16 11:41:07;;;;;;;1.00;0.40;;;10.80;65.50;;;;;;4992477;28;20031;-76
2021/05/16 11:43:42;;;;;;;0.90;0.73;;;10.80;66.00;;;;;;5004605;28;20026;-75
2021/05/16 11:46:12;;;;;;;1.17;0.43;;;10.70;66.50;;;;;;4996803;28;20034;-78
2021/05/16 11:48:41;;;;;;;1.73;0.50;;;10.70;66.60;;;;;;4995591;28;20101;-74
2021/05/16 11:51:16;;;;;;;0.75;0.40;;;10.70;66.60;;;;;;4998163;28;20046;-78
2021/05/16 11:53:54;;;;;;;3.90;0.75;;;10.80;66.60;;;;;;4997645;28;20058;-77
2021/05/16 11:56:24;;;;;;;4.90;0.63;;;10.80;66.10;;;;;;4997387;28;20039;-78
2021/05/16 11:58:54;;;;;;;1.02;0.93;;;10.80;66.20;;;;;;5002574;28;20105;-76
2021/05/16 12:01:23;;;;;;;2.80;0.65;;;10.80;66.40;;;;;;4994907;28;20041;-78
2021/05/16 12:03:58;;;;;;;2.58;0.57;;;10.80;66.40;;;;;;4996861;28;20037;-79
2021/05/16 12:06:27;;;;;;;4.05;1.55;;;10.80;66.10;;;;;;5005782;28;20075;-77
2021/05/16 12:09:15;;;;;;;3.65;2.25;;;10.90;65.90;;;;;;4997338;28;20023;-80
2021/05/16 12:11:43;;;;;;;3.38;1.27;;;10.80;65.80;;;;;;4999650;28;20053;-79
2021/05/16 12:14:19;;;;;;;3.25;0.82;;;10.80;66.40;;;;;;4999394;28;20029;-78
2021/05/16 12:17:03;;;;;;;1.83;0.52;;;10.90;67.50;;;;;;5004442;28;20110;-79
2021/05/16 12:19:37;;;;;;;1.48;0.85;;;10.80;67.70;;;;;;4996025;28;20539;-78
2021/05/16 12:22:07;;;;;;;2.25;1.17;;;10.70;68.20;;;;;;5002258;28;20065;-78
2021/05/16 12:24:48;;;;;;;1.20;0.70;;;10.70;68.10;;;;;;4994895;28;20034;-78
2021/05/16 12:27:18;;;;;;;1.52;0.52;;;10.60;68.30;;;;;;4995909;28;20026;-78
2021/05/16 12:29:47;;;;;;;0.80;0.40;;;10.50;69.20;;;;;;5000251;28;20108;-77
2021/05/16 12:32:22;;;;;;;1.90;0.43;;;10.50;68.80;;;;;;4996830;28;20035;-77
2021/05/16 12:34:50;;;;;;;2.42;0.40;;;10.40;69.10;;;;;;4998121;28;20411;-79
2021/05/16 12:37:23;;;;;;;2.53;0.57;;;10.40;69.50;;;;;;4996883;28;20145;-78
2021/05/16 12:39:53;;;;;;;2.80;0.45;;;10.30;68.90;;;;;;4996963;28;20034;-78
2021/05/16 12:42:32;;;;;;;1.05;0.40;;;10.30;67.30;;;;;;5000972;28;20058;-78
2021/05/16 12:45:32;;;;;;;2.55;0.57;;;10.50;66.90;;;;;;4999465;28;20050;-80
2021/05/16 12:48:07;;;;;;;3.25;0.30;;;10.50;66.80;;;;;;5000353;28;20034;-79
2021/05/16 12:50:36;;;;;;;1.88;0.38;;;10.60;65.80;;;;;;4986290;28;20045;-79
2021/05/16 12:53:25;;;;;;;1.17;0.30;;;10.60;65.90;;;;;;4999652;28;20022;-78
2021/05/16 12:56:16;;;;;;;0.55;0.30;;;10.70;65.70;;;;;;4995869;28;20400;-77
2021/05/16 13:01:25;;;;;;;0.65;0.28;;;10.70;65.10;;;;;;5003145;28;20066;-78
2021/05/16 13:04:01;;;;;;;2.00;0.40;;;10.80;64.40;;;;;;5004274;28;20488;-79
2021/05/16 13:06:32;;;;;;;1.15;0.25;;;10.80;64.60;;;;;;5002820;28;20036;-78